Time;durP1;ratioP1;P1;durP2;ratioP2;P2;SDS_P1;SDS_P2;PMS_P1;PMS_P2;Temp;Humidity;BMP_temperature;BMP_pressure;BME280_temperature;BME280_humidity;BME280_pressure;Samples;Min_cycle;Max_cycle;Signal;HPM_P1;HPM_P2
2023/07/21 00:01:04;;;;;;;6.57;4.20;;;18.20;86.10;;;19.12;61.38;100192.97;4973920;28;20046;-87
2023/07/21 00:03:32;;;;;;;7.65;4.38;;;18.10;86.10;;;19.10;61.36;100187.84;4975048;28;20051;-87
2023/07/21 00:06:00;;;;;;;6.10;4.35;;;18.10;86.10;;;19.08;61.39;100192.72;4989987;28;20105;-87
2023/07/21 00:08:29;;;;;;;6.80;4.82;;;18.10;86.30;;;19.06;61.22;100189.47;4974484;28;20471;-87
2023/07/21 00:10:56;;;;;;;6.70;4.40;;;18.00;86.00;;;19.04;60.95;100186.25;4973496;28;20070;-87
2023/07/21 00:13:25;;;;;;;5.60;4.07;;;18.10;86.10;;;19.02;61.00;100188.41;4989817;28;20159;-87
2023/07/21 00:15:52;;;;;;;7.85;4.60;;;18.00;86.10;;;18.99;60.79;100180.84;4974659;28;20123;-87
2023/07/21 00:18:20;;;;;;;5.97;4.10;;;18.00;86.00;;;18.98;61.17;100185.44;4974539;28;20067;-87
2023/07/21 00:20:48;;;;;;;5.53;4.07;;;18.00;86.00;;;18.97;61.32;100175.69;4974482;28;20046;-87
2023/07/21 00:23:16;;;;;;;6.35;4.22;;;18.00;86.20;;;18.95;61.18;100175.19;4989479;28;20055;-87
2023/07/21 00:25:45;;;;;;;6.03;4.20;;;18.00;86.20;;;18.93;61.16;100177.31;4974453;28;20038;-87
2023/07/21 00:28:13;;;;;;;7.28;3.92;;;17.90;86.20;;;18.91;61.13;100176.81;4974277;28;20043;-87
2023/07/21 00:30:42;;;;;;;5.97;4.40;;;17.90;86.20;;;18.87;61.31;100170.31;4973042;28;20043;-87
2023/07/21 00:33:09;;;;;;;6.72;4.60;;;17.80;86.10;;;18.85;61.06;100167.09;4974467;28;20129;-87
2023/07/21 00:35:36;;;;;;;6.95;4.20;;;17.90;86.30;;;18.83;60.83;100169.25;4973332;28;20049;-87
2023/07/21 00:38:04;;;;;;;7.05;4.00;;;17.80;85.90;;;18.81;60.88;100166.00;4973280;28;20145;-87
2023/07/21 00:40:35;;;;;;;5.43;3.90;;;17.80;85.90;;;18.78;60.62;100161.16;4989045;28;20043;-87
2023/07/21 00:43:03;;;;;;;7.28;4.28;;;17.80;85.70;;;18.76;60.81;100157.91;4989067;28;20500;-87
2023/07/21 00:45:36;;;;;;;6.13;4.20;;;17.70;85.90;;;18.74;60.80;100152.81;4974171;28;20042;-87
2023/07/21 00:48:08;;;;;;;5.80;4.50;;;17.70;86.00;;;18.75;60.76;100156.31;4972703;28;20050;-87
2023/07/21 00:50:42;;;;;;;;;;;17.70;86.10;;;18.71;60.94;100152.53;4973097;28;20043;-87
2023/07/21 00:53:10;;;;;;;6.25;4.70;;;17.70;86.00;;;18.68;61.04;100155.72;4972744;28;19965;-87
2023/07/21 00:55:39;;;;;;;6.05;4.05;;;17.60;86.10;;;18.67;60.80;100149.53;4972682;28;20141;-87
2023/07/21 00:58:07;;;;;;;9.68;4.82;;;17.60;86.00;;;18.67;60.79;100160.31;4988422;28;20078;-87
2023/07/21 01:00:35;;;;;;;6.45;5.13;;;17.60;85.90;;;18.65;60.79;100156.28;4972418;28;20046;-87
2023/07/21 01:03:04;;;;;;;7.90;4.93;;;17.60;85.90;;;18.62;60.89;100151.44;4972542;28;20491;-87
2023/07/21 01:05:35;;;;;;;7.05;5.30;;;17.60;86.10;;;18.61;60.86;100155.22;4972570;28;20046;-87
2023/07/21 01:08:05;;;;;;;6.90;4.75;;;17.60;86.10;;;18.60;60.77;100161.69;4972607;28;20210;-87
2023/07/21 01:10:34;;;;;;;9.82;4.88;;;17.60;86.10;;;18.58;60.78;100150.34;4988639;28;20462;-87
2023/07/21 01:13:02;;;;;;;8.30;5.22;;;17.50;86.10;;;18.55;60.99;100157.13;4972628;28;20051;-87
2023/07/21 01:15:31;;;;;;;6.95;5.57;;;17.50;86.20;;;18.55;61.15;100145.50;4972740;28;20142;-87
2023/07/21 01:17:59;;;;;;;7.57;6.05;;;17.50;86.50;;;18.53;60.89;100143.88;4973585;28;20490;-87
2023/07/21 01:20:28;;;;;;;8.60;6.15;;;17.50;86.30;;;18.53;61.10;100143.06;4988256;28;20046;-87
2023/07/21 01:23:06;;;;;;;7.40;5.70;;;17.50;86.50;;;18.51;61.17;100139.81;4972258;28;20463;-87
2023/07/21 01:25:36;;;;;;;8.23;6.65;;;17.50;86.50;;;18.49;61.28;100131.97;4988363;28;20054;-87
2023/07/21 01:28:06;;;;;;;;;;;17.50;86.60;;;18.51;61.53;100134.44;4972658;28;20492;-87
2023/07/21 01:30:34;;;;;;;9.43;6.45;;;17.50;86.70;;;18.48;61.47;100130.38;4988256;28;20348;-87
2023/07/21 01:33:05;;;;;;;8.30;5.88;;;17.50;86.80;;;18.46;61.43;100121.72;4973336;28;20125;-87
2023/07/21 01:35:33;;;;;;;8.20;6.50;;;17.50;86.80;;;18.45;61.71;100130.94;4972186;28;20491;-87
2023/07/21 01:38:01;;;;;;;8.02;6.22;;;17.50;86.90;;;18.45;61.68;100125.53;4972088;28;20463;-87
2023/07/21 01:40:29;;;;;;;8.85;6.07;;;17.50;87.10;;;18.43;61.74;100119.56;4971915;28;20133;-87
2023/07/21 01:42:59;;;;;;;10.60;6.95;;;17.50;86.90;;;18.44;61.69;100120.38;4971923;28;20140;-87
2023/07/21 01:45:27;;;;;;;8.10;6.68;;;17.50;87.10;;;18.43;61.66;100118.75;4972279;28;20097;-87
2023/07/21 01:47:55;;;;;;;8.55;6.05;;;17.50;87.10;;;18.42;61.42;100109.06;4988135;28;20467;-87
2023/07/21 01:50:24;;;;;;;10.05;6.53;;;17.50;87.10;;;18.42;61.96;100104.44;4987887;28;20444;-87
2023/07/21 01:52:52;;;;;;;11.93;6.80;;;17.50;87.30;;;18.41;62.10;100107.44;4988214;28;20051;-87
2023/07/21 01:55:26;;;;;;;9.40;6.20;;;17.40;87.20;;;18.40;61.94;100106.63;4973364;28;20067;-87
2023/07/21 01:57:59;;;;;;;8.82;6.80;;;17.40;87.30;;;18.39;62.13;100104.97;4972087;28;20054;-87
2023/07/21 02:00:33;;;;;;;10.05;7.18;;;17.40;87.40;;;18.39;62.34;100101.47;4971603;28;20074;-87
2023/07/21 02:03:02;;;;;;;9.45;6.95;;;17.40;87.60;;;18.38;62.36;100097.97;4973099;28;20045;-87
2023/07/21 02:05:29;;;;;;;9.00;6.93;;;17.40;87.70;;;18.38;62.28;100092.56;4971997;28;20050;-87
2023/07/21 02:07:56;;;;;;;8.55;6.15;;;17.40;87.70;;;18.38;62.44;100092.56;4987765;28;20050;-87
2023/07/21 02:10:23;;;;;;;11.20;7.18;;;17.40;87.90;;;18.36;62.39;100094.75;4973077;28;20754;-87
2023/07/21 02:13:04;;;;;;;8.15;6.65;;;17.40;87.90;;;18.36;62.52;100092.03;4975783;28;20051;-87
2023/07/21 02:15:33;;;;;;;10.95;6.65;;;17.40;87.90;;;18.35;62.58;100095.84;4975685;28;20038;-87
2023/07/21 02:18:01;;;;;;;8.88;6.90;;;17.40;88.10;;;18.33;62.63;100092.56;4979377;28;20047;-87
2023/07/21 02:20:28;;;;;;;7.97;6.65;;;17.40;88.10;;;18.32;62.82;100093.66;4975354;28;20098;-87
2023/07/21 02:22:56;;;;;;;9.65;6.55;;;17.40;88.20;;;18.33;62.68;100094.47;4991892;28;20046;-87
2023/07/21 02:25:24;;;;;;;10.50;6.97;;;17.40;88.20;;;18.33;62.82;100097.97;4975472;28;20057;-87
2023/07/21 02:27:52;;;;;;;9.23;6.97;;;17.40;88.20;;;18.32;63.02;100090.97;4975556;28;20047;-87
2023/07/21 02:30:21;;;;;;;7.68;6.20;;;17.40;88.30;;;18.30;62.74;100093.16;4975276;28;20055;-87
2023/07/21 02:32:48;;;;;;;9.07;6.63;;;17.40;88.30;;;18.29;63.06;100094.19;4975518;28;20097;-87
2023/07/21 02:35:15;;;;;;;10.48;6.57;;;17.40;88.50;;;18.28;63.17;100089.88;4976783;28;20066;-87
2023/07/21 02:37:43;;;;;;;10.75;6.53;;;17.40;88.50;;;18.25;62.89;100085.84;4976711;28;20511;-87
2023/07/21 02:40:12;;;;;;;8.45;6.35;;;17.30;88.30;;;18.25;62.99;100090.41;4976288;28;20097;-87
2023/07/21 02:42:39;;;;;;;10.30;6.65;;;17.30;88.50;;;18.24;62.83;100086.09;4976208;28;20075;-87
2023/07/21 02:45:08;;;;;;;10.57;7.25;;;17.30;88.40;;;18.21;62.93;100097.47;4975142;28;20098;-87
2023/07/21 02:47:37;;;;;;;12.02;6.38;;;17.30;88.40;;;18.19;62.90;100095.00;4974993;28;20043;-87
2023/07/21 02:50:10;;;;;;;8.98;6.65;;;17.30;88.30;;;18.17;62.75;100099.88;4990879;28;20046;-87
2023/07/21 02:52:38;;;;;;;9.07;7.13;;;17.30;88.30;;;18.16;62.84;100098.28;4975107;28;20101;-87
2023/07/21 02:55:07;;;;;;;10.77;7.40;;;17.20;88.30;;;18.16;62.76;100089.38;4974704;28;20073;-87
2023/07/21 02:57:36;;;;;;;9.65;7.85;;;17.20;88.30;;;18.14;62.86;100091.50;4990991;28;20532;-87
2023/07/21 03:00:07;;;;;;;10.75;8.10;;;17.20;88.30;;;18.13;62.86;100096.09;4974536;28;20068;-87
2023/07/21 03:02:44;;;;;;;9.13;7.50;;;17.20;88.50;;;18.13;62.92;100098.00;4974988;28;20058;-87
2023/07/21 03:05:12;;;;;;;9.68;7.85;;;17.20;88.30;;;18.12;62.83;100093.69;4991096;28;20046;-87
2023/07/21 03:07:39;;;;;;;9.70;7.65;;;17.20;88.50;;;18.13;62.71;100087.19;4974383;28;20043;-87
2023/07/21 03:10:11;;;;;;;9.25;7.43;;;17.20;88.20;;;18.11;62.82;100083.97;4990645;28;20069;-87
2023/07/21 03:12:38;;;;;;;9.30;7.90;;;17.20;88.20;;;18.10;62.89;100090.44;4991056;28;20051;-87
2023/07/21 03:15:26;;;;;;;9.82;7.22;;;17.20;88.30;;;18.08;62.93;100084.50;4975305;28;20097;-87
2023/07/21 03:18:03;;;;;;;8.88;6.97;;;17.20;88.20;;;18.05;62.62;100083.13;4990698;28;20051;-87
2023/07/21 03:20:37;;;;;;;11.00;7.28;;;17.10;88.20;;;18.02;62.71;100073.72;4974437;28;20042;-86
2023/07/21 03:23:07;;;;;;;11.35;6.88;;;17.10;88.20;;;18.00;62.52;100070.44;4973330;28;20047;-87
2023/07/21 03:25:37;;;;;;;12.25;6.68;;;17.10;88.20;;;17.99;62.58;100071.53;4974847;28;20047;-87
2023/07/21 03:28:05;;;;;;;9.40;7.05;;;17.00;88.00;;;17.96;62.47;100072.09;4990511;28;20146;-87
2023/07/21 03:30:35;;;;;;;9.63;7.32;;;17.00;87.90;;;17.95;62.23;100072.34;4990337;28;20070;-87
2023/07/21 03:33:14;;;;;;;10.80;7.40;;;17.00;87.90;;;17.93;62.15;100075.31;4974158;28;20109;-87
2023/07/21 03:35:43;;;;;;;9.50;8.00;;;17.00;87.90;;;17.91;62.53;100073.97;4990356;28;20415;-86
2023/07/21 03:38:13;;;;;;;9.55;7.90;;;17.00;88.00;;;17.87;62.53;100075.59;4974376;28;20043;-87
2023/07/21 03:40:40;;;;;;;11.57;9.02;;;16.90;88.10;;;17.87;62.51;100076.41;4975779;28;20054;-87
2023/07/21 03:43:07;;;;;;;12.57;8.90;;;16.90;88.30;;;17.85;62.79;100070.44;5008664;28;20068;-86
2023/07/21 03:45:35;;;;;;;11.27;8.57;;;16.90;88.40;;;17.86;62.82;100074.78;4995241;28;20042;-85
2023/07/21 03:48:03;;;;;;;11.82;9.35;;;16.90;88.60;;;17.86;62.73;100076.66;5011380;28;20054;-86
2023/07/21 03:50:35;;;;;;;11.98;7.95;;;16.90;88.60;;;17.86;62.90;100077.50;4991068;28;20047;-86
2023/07/21 03:53:04;;;;;;;12.20;7.78;;;16.90;88.70;;;17.84;62.72;100078.81;4993391;28;20121;-87
2023/07/21 03:55:32;;;;;;;10.45;8.35;;;16.90;88.50;;;17.82;62.72;100084.50;4991643;28;20105;-86
2023/07/21 03:57:59;;;;;;;12.05;8.57;;;16.90;88.50;;;17.80;62.81;100086.63;4974860;28;20051;-87
2023/07/21 04:00:29;;;;;;;10.57;8.40;;;16.80;88.30;;;17.81;62.58;100087.44;4990494;28;20081;-87
2023/07/21 04:02:56;;;;;;;13.23;9.00;;;16.90;88.40;;;17.79;62.53;100078.81;4974152;28;20050;-87
2023/07/21 04:05:23;;;;;;;13.10;9.43;;;16.90;88.40;;;17.77;62.79;100076.41;4973627;28;20125;-86
2023/07/21 04:07:52;;;;;;;14.60;9.30;;;16.80;88.30;;;17.77;62.69;100072.91;4973455;28;20503;-87
2023/07/21 04:10:19;;;;;;;13.93;9.75;;;16.90;88.30;;;17.77;62.63;100076.41;4973172;28;20149;-86
2023/07/21 04:12:46;;;;;;;14.10;11.00;;;16.90;88.40;;;17.81;62.93;100082.06;4973576;28;20085;-87
2023/07/21 04:15:14;;;;;;;17.67;12.05;;;16.90;88.60;;;17.78;63.06;100083.41;4973538;28;20081;-86
2023/07/21 04:17:41;;;;;;;15.63;11.90;;;16.90;88.60;;;17.75;63.12;100081.25;4989759;28;20124;-86
2023/07/21 04:20:10;;;;;;;14.85;12.23;;;16.90;88.80;;;17.77;63.01;100071.00;4973030;28;20755;-86
2023/07/21 04:22:38;;;;;;;16.17;12.18;;;16.90;88.90;;;17.75;63.16;100073.16;4974696;28;20034;-86
2023/07/21 04:25:08;;;;;;;17.35;13.88;;;16.80;88.70;;;17.74;63.42;100079.63;4973492;28;20457;-86
2023/07/21 04:27:36;;;;;;;17.95;14.75;;;16.90;89.30;;;17.73;63.66;100081.50;4973255;28;20053;-87
2023/07/21 04:30:05;;;;;;;20.27;14.60;;;16.80;89.60;;;17.73;64.06;100075.31;4974199;28;20050;-86
2023/07/21 04:32:33;;;;;;;17.95;14.50;;;16.80;89.70;;;17.75;64.09;100073.94;4973318;28;20455;-87
2023/07/21 04:35:03;;;;;;;19.52;15.68;;;16.80;89.90;;;17.78;64.14;100075.31;4972330;28;20051;-87
2023/07/21 04:37:32;;;;;;;23.90;16.15;;;16.90;90.00;;;17.80;64.18;100080.44;4989211;28;20051;-86
2023/07/21 04:39:59;;;;;;;20.70;16.58;;;17.00;90.10;;;17.83;64.48;100078.03;4989041;28;20078;-87
2023/07/21 04:42:28;;;;;;;21.27;17.25;;;17.00;90.20;;;17.82;64.75;100076.41;4988944;28;20039;-87
2023/07/21 04:44:55;;;;;;;21.42;17.02;;;17.00;90.50;;;17.83;65.10;100072.63;4972721;28;20516;-87
2023/07/21 04:47:23;;;;;;;20.67;16.90;;;17.00;90.80;;;17.87;65.32;100081.81;4988724;28;20155;-87
2023/07/21 04:49:58;;;;;;;21.85;17.50;;;17.10;91.20;;;17.92;65.67;100081.00;4972283;28;20047;-87
2023/07/21 04:52:26;;;;;;;23.65;17.40;;;17.10;91.50;;;17.95;65.81;100067.75;4988944;28;20051;-87
2023/07/21 04:54:54;;;;;;;20.55;16.35;;;17.20;91.40;;;17.98;65.92;100074.53;4972886;28;20081;-86
2023/07/21 04:57:21;;;;;;;21.65;16.35;;;17.20;91.50;;;17.98;65.53;100075.31;4988974;28;20050;-87
2023/07/21 04:59:50;;;;;;;21.83;16.20;;;17.30;91.40;;;18.01;65.89;100072.09;4972387;28;20115;-87
2023/07/21 05:02:17;;;;;;;20.92;16.77;;;17.30;91.30;;;18.02;65.86;100072.91;4988759;28;20057;-86
2023/07/21 05:04:45;;;;;;;21.20;15.82;;;17.30;91.20;;;18.02;65.98;100076.41;4988958;28;20039;-86
2023/07/21 05:07:13;;;;;;;19.65;14.68;;;17.30;91.50;;;18.04;66.20;100080.72;4988698;28;20046;-87
2023/07/21 05:09:41;;;;;;;19.50;16.00;;;17.30;91.60;;;18.05;66.11;100076.94;4972206;28;20081;-86
2023/07/21 05:12:13;;;;;;;20.58;16.25;;;17.30;91.60;;;18.04;66.02;100072.63;4972570;28;20054;-86
2023/07/21 05:15:14;;;;;;;21.20;15.55;;;17.30;91.80;;;18.02;66.48;100079.09;4969495;28;20050;-86
2023/07/21 05:17:51;;;;;;;22.40;17.45;;;17.30;92.00;;;18.04;66.53;100084.22;4972295;28;20198;-86
2023/07/21 05:20:41;;;;;;;23.65;18.63;;;17.30;91.90;;;18.06;66.27;100073.19;4945101;28;20058;-87
2023/07/21 05:23:16;;;;;;;22.40;17.88;;;17.40;91.90;;;18.05;66.36;100080.44;4972142;28;20098;-86
2023/07/21 05:26:06;;;;;;;22.05;17.85;;;17.40;92.00;;;18.08;66.83;100068.31;4973165;28;20055;-87
2023/07/21 05:28:38;;;;;;;23.13;17.40;;;17.40;92.00;;;18.14;66.51;100069.91;4971749;28;20134;-87
2023/07/21 05:31:08;;;;;;;25.27;17.65;;;17.50;92.00;;;18.24;66.68;100073.41;4972090;28;20070;-87
2023/07/21 05:34:02;;;;;;;23.50;17.67;;;17.60;91.80;;;18.37;66.37;100068.56;4971310;28;20079;-86
2023/07/21 05:36:31;;;;;;;19.80;16.63;;;17.80;91.60;;;18.49;66.50;100060.94;4972082;28;20141;-86
2023/07/21 05:38:58;;;;;;;23.23;18.33;;;17.90;91.80;;;18.63;66.98;100067.41;4988163;28;20035;-86
2023/07/21 05:41:27;;;;;;;20.63;17.20;;;18.10;91.70;;;18.73;66.71;100069.28;4988050;28;20055;-86
2023/07/21 05:43:54;;;;;;;22.38;18.30;;;18.20;91.40;;;18.84;66.72;100061.97;4972405;28;20773;-86
2023/07/21 05:46:23;;;;;;;20.58;16.75;;;18.40;91.20;;;18.93;66.56;100063.81;4987435;28;20101;-86
2023/07/21 05:48:58;;;;;;;19.58;16.02;;;18.50;90.60;;;19.05;66.03;100055.41;4971668;28;20046;-86
2023/07/21 05:51:25;;;;;;;20.65;16.00;;;18.70;90.00;;;19.11;65.14;100059.69;4971688;28;20599;-86
2023/07/21 05:53:59;;;;;;;18.08;15.15;;;18.80;89.20;;;19.09;65.47;100061.06;4988058;28;20049;-87
2023/07/21 05:56:30;;;;;;;20.88;15.85;;;18.80;89.10;;;19.08;65.08;100062.13;4988058;28;20046;-86
2023/07/21 05:59:04;;;;;;;21.25;15.27;;;18.70;88.70;;;19.08;65.59;100059.44;4971482;28;20051;-87
2023/07/21 06:01:34;;;;;;;19.17;14.93;;;18.70;89.10;;;19.08;65.37;100064.84;4971536;28;20101;-86
2023/07/21 06:04:01;;;;;;;18.25;13.13;;;18.70;89.10;;;19.20;64.66;100065.34;4987701;28;20043;-87
2023/07/21 06:06:29;;;;;;;19.33;14.02;;;18.80;88.50;;;19.31;64.83;100064.19;4971540;28;20047;-86
2023/07/21 06:09:18;;;;;;;19.30;13.82;;;19.00;88.30;;;19.44;64.17;100060.88;4971145;28;20057;-86
2023/07/21 06:11:56;;;;;;;21.17;13.90;;;19.20;87.50;;;19.46;63.89;100061.38;4987883;28;20043;-86
2023/07/21 06:14:39;;;;;;;18.52;12.68;;;19.20;87.10;;;19.55;63.80;100062.41;4973455;28;20051;-87
2023/07/21 06:17:21;;;;;;;19.85;12.88;;;19.30;86.80;;;19.63;63.40;100069.16;4972950;28;20066;-86
2023/07/21 06:19:49;;;;;;;22.25;13.90;;;19.40;85.80;;;19.75;63.25;100071.50;4971397;28;20043;-87
2023/07/21 06:22:17;;;;;;;19.23;13.50;;;19.60;86.10;;;19.78;63.15;100070.97;4987800;28;20066;-86
2023/07/21 06:24:44;;;;;;;17.02;13.02;;;19.70;86.00;;;19.83;62.73;100070.91;4987680;28;20042;-86
2023/07/21 06:27:13;;;;;;;21.08;13.20;;;19.70;85.10;;;19.85;62.95;100073.34;4987535;28;20524;-86
2023/07/21 06:29:40;;;;;;;17.13;13.35;;;19.80;85.30;;;19.85;62.94;100078.75;4970553;28;20097;-87
2023/07/21 06:32:10;;;;;;;18.65;14.02;;;19.80;85.30;;;19.76;62.61;100076.66;4987573;28;20101;-87
2023/07/21 06:35:09;;;;;;;18.88;14.48;;;19.70;84.70;;;19.70;62.77;100079.66;4963763;28;20046;-86
2023/07/21 06:37:58;;;;;;;18.35;13.80;;;19.60;85.00;;;19.64;63.45;100075.38;4987522;28;20531;-86
2023/07/21 06:40:44;;;;;;;19.00;14.27;;;19.50;85.70;;;19.60;63.49;100063.50;4972643;28;20518;-86
2023/07/21 06:43:31;;;;;;;17.50;13.73;;;19.40;86.10;;;19.57;63.93;100070.28;4971407;28;20177;-87
2023/07/21 06:46:17;;;;;;;18.75;14.07;;;19.30;86.70;;;19.52;64.19;100068.41;4971598;28;20069;-87
2023/07/21 06:49:05;;;;;;;21.73;14.02;;;19.20;86.90;;;19.51;64.41;100074.88;4961681;28;20142;-87
2023/07/21 06:51:58;;;;;;;18.88;14.27;;;19.20;87.70;;;19.52;64.04;100070.28;4973037;28;20074;-87
2023/07/21 06:54:29;;;;;;;19.30;14.07;;;19.20;86.90;;;19.49;64.16;100074.38;4983425;28;20051;-87
2023/07/21 06:56:58;;;;;;;19.33;14.60;;;19.20;86.90;;;19.45;63.50;100072.50;4989004;28;20117;-87
2023/07/21 06:59:25;;;;;;;16.75;13.77;;;19.10;86.70;;;19.44;63.81;100074.41;4974530;28;20046;-87
2023/07/21 07:01:52;;;;;;;15.50;13.70;;;19.10;86.90;;;19.49;64.57;100073.56;4990913;28;20051;-87
2023/07/21 07:04:21;;;;;;;17.63;13.82;;;19.20;87.30;;;19.70;64.56;100069.66;4974792;28;20057;-87
2023/07/21 07:06:48;;;;;;;19.17;15.02;;;19.50;87.30;;;19.79;63.52;100073.38;4974739;28;20057;-87
2023/07/21 07:09:17;;;;;;;20.27;14.68;;;19.70;85.80;;;19.84;64.05;100064.41;4974423;28;20042;-87
2023/07/21 07:11:45;;;;;;;18.35;14.73;;;19.80;86.30;;;19.88;63.12;100070.06;4990887;28;20054;-87
2023/07/21 07:14:15;;;;;;;19.50;13.77;;;19.90;85.20;;;19.87;62.93;100060.34;4990817;28;20431;-86
2023/07/21 07:16:43;;;;;;;17.55;12.73;;;19.90;85.00;;;19.90;62.97;100057.84;4974275;28;20771;-87
2023/07/21 07:19:11;;;;;;;16.48;11.60;;;19.90;85.10;;;19.93;63.31;100057.31;4975352;28;20070;-87
2023/07/21 07:21:38;;;;;;;15.68;11.05;;;19.90;85.30;;;19.94;62.12;100060.81;4990338;28;20061;-87
2023/07/21 07:24:06;;;;;;;13.80;11.27;;;19.90;84.30;;;20.04;62.32;100058.81;4975397;28;20046;-87
2023/07/21 07:26:35;;;;;;;18.70;11.88;;;20.00;84.30;;;20.13;61.53;100055.50;4990330;28;20082;-87
2023/07/21 07:29:04;;;;;;;13.55;9.20;;;20.00;83.50;;;20.13;60.80;100055.50;4990120;28;20039;-87
2023/07/21 07:31:31;;;;;;;13.25;7.72;;;20.10;82.40;;;20.19;60.11;100059.78;4974029;28;20086;-87
2023/07/21 07:33:59;;;;;;;11.23;6.80;;;20.10;81.60;;;20.23;58.26;100063.53;4990479;28;20093;-87
2023/07/21 07:36:26;;;;;;;11.88;7.35;;;20.20;79.70;;;20.16;56.82;100053.06;4975441;28;20133;-86
2023/07/21 07:38:53;;;;;;;11.10;7.22;;;20.20;77.80;;;20.19;57.71;100059.78;4975347;28;20467;-86
2023/07/21 07:41:20;;;;;;;13.30;9.02;;;20.20;78.60;;;20.20;59.46;100055.97;4975292;28;20045;-87
2023/07/21 07:43:49;;;;;;;13.05;9.85;;;20.20;80.60;;;20.38;60.41;100055.25;4990349;28;20169;-86
2023/07/21 07:46:17;;;;;;;13.30;10.52;;;20.40;81.80;;;20.50;60.51;100053.03;4974247;28;20157;-86
2023/07/21 07:48:47;;;;;;;16.88;10.90;;;20.60;81.40;;;20.60;59.71;100054.00;4974863;28;20467;-86
2023/07/21 07:51:15;;;;;;;11.70;7.88;;;20.70;80.30;;;20.58;58.83;100043.44;4975047;28;20039;-86
2023/07/21 07:53:42;;;;;;;12.52;8.02;;;20.70;79.60;;;20.69;59.63;100044.97;4973543;28;20049;-86
2023/07/21 07:56:16;;;;;;;8.20;6.78;;;20.80;79.80;;;20.73;57.36;100050.59;4974786;28;20093;-86
2023/07/21 07:58:43;;;;;;;12.68;7.75;;;20.90;77.60;;;20.71;56.63;100045.47;4973386;28;20149;-86
2023/07/21 08:01:13;;;;;;;9.18;6.57;;;20.90;76.50;;;20.75;57.15;100051.13;4989530;28;20082;-86
2023/07/21 08:03:43;;;;;;;8.05;5.97;;;20.90;77.10;;;20.70;54.80;100046.56;4989991;28;20043;-86
2023/07/21 08:06:11;;;;;;;8.53;5.43;;;20.90;74.70;;;20.63;54.85;100053.41;4989861;28;20047;-86
2023/07/21 08:08:39;;;;;;;6.65;5.32;;;20.70;74.20;;;20.72;55.31;100054.41;4972774;28;20101;-86
2023/07/21 08:11:07;;;;;;;7.63;5.40;;;20.80;75.50;;;20.77;55.67;100049.72;4974566;28;20073;-86
2023/07/21 08:13:34;;;;;;;8.55;5.90;;;20.90;75.80;;;20.78;54.65;100050.53;4973605;28;20047;-86
2023/07/21 08:16:08;;;;;;;6.25;4.30;;;20.90;74.00;;;20.77;55.04;100049.72;4989701;28;20046;-86
2023/07/21 08:18:36;;;;;;;7.10;4.50;;;20.90;74.50;;;20.77;54.72;100047.00;4974398;28;20556;-86
2023/07/21 08:21:19;;;;;;;6.43;4.75;;;20.80;73.90;;;20.71;53.61;100047.38;4973615;28;20074;-86
2023/07/21 08:23:47;;;;;;;8.07;4.70;;;20.80;73.10;;;20.72;54.62;100051.69;4988246;28;20055;-86
2023/07/21 08:26:14;;;;;;;7.55;4.97;;;20.80;73.90;;;20.75;54.51;100048.41;4989648;28;20157;-87
2023/07/21 08:28:42;;;;;;;7.78;4.78;;;20.80;74.20;;;20.83;53.98;100043.13;4974143;28;20082;-86
2023/07/21 08:31:11;;;;;;;7.55;5.35;;;20.90;73.10;;;20.94;53.66;100049.25;4989107;28;20043;-86
2023/07/21 08:33:40;;;;;;;8.70;5.43;;;21.00;72.70;;;21.03;53.61;100042.09;4973982;28;20419;-86
2023/07/21 08:36:07;;;;;;;10.48;6.07;;;21.20;72.70;;;21.05;52.49;100047.22;4989022;28;20526;-86
2023/07/21 08:38:35;;;;;;;11.88;7.05;;;21.20;71.40;;;20.99;53.35;100046.47;4988753;28;20133;-86
2023/07/21 08:41:05;;;;;;;10.15;7.90;;;21.10;72.60;;;20.90;52.89;100048.22;4974174;28;20510;-86
2023/07/21 08:43:33;;;;;;;12.68;7.70;;;21.00;71.80;;;20.87;52.32;100048.78;4989067;28;20046;-86
2023/07/21 08:46:03;;;;;;;11.65;7.50;;;20.90;71.40;;;20.88;53.42;100044.97;4988867;28;20046;-86
2023/07/21 08:48:32;;;;;;;11.90;8.70;;;21.00;72.50;;;20.95;55.08;100042.72;4973945;28;20484;-86
2023/07/21 08:51:01;;;;;;;9.73;7.50;;;21.00;74.30;;;21.02;54.45;100047.78;4972506;28;20043;-86
2023/07/21 08:53:30;;;;;;;11.52;8.50;;;21.10;73.50;;;20.99;52.96;100046.47;4989005;28;20051;-86
2023/07/21 08:56:00;;;;;;;10.18;7.85;;;21.10;71.50;;;20.89;53.04;100041.19;4973880;28;20051;-86
2023/07/21 08:58:28;;;;;;;12.27;8.52;;;21.00;72.10;;;20.95;55.55;100044.63;4972506;28;20133;-86
2023/07/21 09:00:57;;;;;;;11.65;7.53;;;21.10;74.70;;;21.02;53.73;100043.16;4988565;28;20576;-86
2023/07/21 09:03:27;;;;;;;10.98;6.65;;;21.10;72.70;;;20.99;54.24;100042.97;4989030;28;20508;-86
2023/07/21 09:05:57;;;;;;;9.40;6.50;;;21.10;72.80;;;21.04;53.16;100041.00;4988550;28;20523;-87
2023/07/21 09:08:28;;;;;;;8.65;5.50;;;21.20;71.70;;;21.08;53.58;100038.47;4988505;28;20078;-86
2023/07/21 09:10:59;;;;;;;13.05;6.85;;;21.30;72.30;;;21.06;52.83;100036.06;4988378;28;20081;-87
2023/07/21 09:13:27;;;;;;;14.93;9.57;;;21.20;71.30;;;21.15;55.28;100035.44;4973437;28;20046;-87
2023/07/21 09:15:56;;;;;;;15.10;8.98;;;21.30;73.90;;;21.25;55.17;100038.00;4988385;28;20058;-86
2023/07/21 09:18:28;;;;;;;12.25;8.13;;;21.50;73.50;;;21.37;51.84;100038.38;4972035;28;20105;-86
2023/07/21 09:20:56;;;;;;;9.82;7.03;;;21.60;70.00;;;21.40;51.28;100034.28;4972440;28;20459;-86
2023/07/21 09:23:25;;;;;;;11.48;8.13;;;21.70;69.10;;;21.38;51.17;100031.06;4973546;28;20046;-87
2023/07/21 09:25:56;;;;;;;11.57;7.40;;;21.60;68.90;;;21.31;51.27;100026.00;4973450;28;20051;-86
2023/07/21 09:28:40;;;;;;;8.48;6.13;;;21.60;69.10;;;21.20;51.30;100035.34;4988259;28;20137;-86
2023/07/21 09:31:08;;;;;;;8.52;5.47;;;21.40;68.90;;;21.09;51.38;100031.97;4971818;28;20047;-86
2023/07/21 09:33:39;;;;;;;8.63;4.80;;;21.30;69.30;;;21.16;51.88;100034.31;4973371;28;20043;-86
2023/07/21 09:36:08;;;;;;;9.05;5.13;;;21.30;70.00;;;21.26;52.51;100024.13;4972133;28;20568;-86
2023/07/21 09:38:38;;;;;;;8.05;5.65;;;21.40;70.90;;;21.42;53.35;100019.31;4988088;28;20563;-87
2023/07/21 09:41:09;;;;;;;8.25;6.50;;;21.60;71.50;;;21.51;51.76;100025.69;4971915;28;20055;-86
2023/07/21 09:43:37;;;;;;;10.48;5.88;;;21.80;69.70;;;21.45;51.62;100021.44;4972036;28;20051;-86
2023/07/21 09:46:06;;;;;;;12.23;8.45;;;21.70;69.50;;;21.30;49.24;100022.47;4973159;28;20046;-86
2023/07/21 09:48:36;;;;;;;9.20;6.55;;;21.60;67.60;;;21.21;51.57;100028.81;4987762;28;20137;-86
2023/07/21 09:51:07;;;;;;;10.38;7.03;;;21.40;69.40;;;21.21;52.40;100026.13;4972736;28;20098;-86
2023/07/21 09:53:38;;;;;;;10.68;7.38;;;21.40;70.30;;;21.16;51.80;100027.00;4972956;28;20934;-87
2023/07/21 09:56:09;;;;;;;11.32;6.32;;;21.30;69.90;;;21.14;51.55;100028.41;4988108;28;20134;-86
2023/07/21 09:58:42;;;;;;;11.02;6.50;;;21.30;70.00;;;21.26;53.85;100039.59;4972644;28;20038;-86
2023/07/21 10:01:10;;;;;;;11.95;6.18;;;21.40;71.50;;;21.41;51.65;100036.69;4972921;28;20082;-86
2023/07/21 10:03:38;;;;;;;11.95;7.07;;;21.60;69.20;;;21.39;49.76;100030.78;4972825;28;20089;-86
2023/07/21 10:06:07;;;;;;;10.55;6.28;;;21.60;67.00;;;21.25;49.66;100027.16;4972909;28;20125;-86
2023/07/21 10:08:36;;;;;;;15.15;6.32;;;21.40;67.30;;;21.31;51.61;100031.44;4972849;28;20057;-86
2023/07/21 10:11:07;;;;;;;11.80;6.88;;;21.50;69.50;;;21.41;51.32;100022.34;4987816;28;20147;-86
2023/07/21 10:13:40;;;;;;;11.10;6.82;;;21.60;68.90;;;21.51;51.44;100024.88;4973021;28;20047;-86
2023/07/21 10:16:09;;;;;;;8.93;6.25;;;21.70;69.10;;;21.63;51.61;100022.53;4987951;28;20137;-87
2023/07/21 10:18:37;;;;;;;8.43;6.45;;;21.90;68.70;;;21.69;50.93;100023.25;4972726;28;20035;-86
2023/07/21 10:21:05;;;;;;;9.45;6.28;;;21.90;68.40;;;21.55;50.27;100026.72;4971476;28;20574;-86